sensor_id;sensor_type;location;lat;lon;timestamp;P1;durP1;ratioP1;P2;durP2;ratioP2
74626;SDS011;63132;52.268;5.192;2022-09-01T00:01:37;5.63;;;2.15;;
74626;SDS011;63132;52.268;5.192;2022-09-01T00:04:06;6.97;;;1.95;;
74626;SDS011;63132;52.268;5.192;2022-09-01T00:06:34;6.10;;;2.10;;
74626;SDS011;63132;52.268;5.192;2022-09-01T00:09:04;3.85;;;1.80;;
74626;SDS011;63132;52.268;5.192;2022-09-01T00:11:35;5.80;;;2.20;;
74626;SDS011;63132;52.268;5.192;2022-09-01T00:14:02;4.80;;;2.10;;
74626;SDS011;63132;52.268;5.192;2022-09-01T00:16:30;6.85;;;2.10;;
74626;SDS011;63132;52.268;5.192;2022-09-01T00:18:56;7.10;;;2.00;;
74626;SDS011;63132;52.268;5.192;2022-09-01T00:21:24;6.75;;;2.33;;
74626;SDS011;63132;52.268;5.192;2022-09-01T00:23:55;6.38;;;2.47;;
74626;SDS011;63132;52.268;5.192;2022-09-01T00:26:20;5.03;;;2.13;;
74626;SDS011;63132;52.268;5.192;2022-09-01T00:28:46;4.80;;;2.20;;
74626;SDS011;63132;52.268;5.192;2022-09-01T00:31:12;7.63;;;2.60;;
74626;SDS011;63132;52.268;5.192;2022-09-01T00:33:39;6.68;;;2.30;;
74626;SDS011;63132;52.268;5.192;2022-09-01T00:36:05;8.47;;;3.00;;
74626;SDS011;63132;52.268;5.192;2022-09-01T00:38:31;6.85;;;2.10;;
74626;SDS011;63132;52.268;5.192;2022-09-01T00:40:57;5.83;;;2.37;;
74626;SDS011;63132;52.268;5.192;2022-09-01T00:46:19;8.15;;;2.38;;
74626;SDS011;63132;52.268;5.192;2022-09-01T00:48:55;6.55;;;2.45;;
74626;SDS011;63132;52.268;5.192;2022-09-01T00:51:23;6.53;;;2.70;;
74626;SDS011;63132;52.268;5.192;2022-09-01T00:53:49;6.40;;;2.70;;
74626;SDS011;63132;52.268;5.192;2022-09-01T00:56:16;7.20;;;2.65;;
74626;SDS011;63132;52.268;5.192;2022-09-01T00:58:42;7.00;;;2.60;;
74626;SDS011;63132;52.268;5.192;2022-09-01T01:01:08;8.88;;;2.60;;
74626;SDS011;63132;52.268;5.192;2022-09-01T01:03:35;9.25;;;2.60;;
74626;SDS011;63132;52.268;5.192;2022-09-01T01:06:04;8.50;;;2.40;;
74626;SDS011;63132;52.268;5.192;2022-09-01T01:08:32;7.22;;;2.53;;
74626;SDS011;63132;52.268;5.192;2022-09-01T01:11:01;6.28;;;2.40;;
74626;SDS011;63132;52.268;5.192;2022-09-01T01:13:29;5.60;;;2.60;;
74626;SDS011;63132;52.268;5.192;2022-09-01T01:15:59;5.82;;;2.58;;
74626;SDS011;63132;52.268;5.192;2022-09-01T01:18:25;8.20;;;2.73;;
74626;SDS011;63132;52.268;5.192;2022-09-01T01:21:04;5.47;;;2.70;;
74626;SDS011;63132;52.268;5.192;2022-09-01T01:23:54;4.90;;;2.42;;
74626;SDS011;63132;52.268;5.192;2022-09-01T01:26:26;7.22;;;2.40;;
74626;SDS011;63132;52.268;5.192;2022-09-01T01:28:52;6.90;;;2.45;;
74626;SDS011;63132;52.268;5.192;2022-09-01T01:31:19;6.22;;;2.63;;
74626;SDS011;63132;52.268;5.192;2022-09-01T01:33:48;5.28;;;2.30;;
74626;SDS011;63132;52.268;5.192;2022-09-01T01:36:19;6.93;;;2.60;;
74626;SDS011;63132;52.268;5.192;2022-09-01T01:38:51;9.53;;;2.80;;
74626;SDS011;63132;52.268;5.192;2022-09-01T01:41:17;6.40;;;2.70;;
74626;SDS011;63132;52.268;5.192;2022-09-01T01:43:43;6.90;;;2.70;;
74626;SDS011;63132;52.268;5.192;2022-09-01T01:46:10;8.73;;;2.80;;
74626;SDS011;63132;52.268;5.192;2022-09-01T01:48:39;7.35;;;2.58;;
74626;SDS011;63132;52.268;5.192;2022-09-01T01:51:06;6.15;;;2.60;;
74626;SDS011;63132;52.268;5.192;2022-09-01T01:53:32;6.95;;;2.45;;
74626;SDS011;63132;52.268;5.192;2022-09-01T01:55:58;8.15;;;3.00;;
74626;SDS011;63132;52.268;5.192;2022-09-01T01:58:25;4.80;;;2.50;;
74626;SDS011;63132;52.268;5.192;2022-09-01T02:00:53;6.37;;;2.73;;
74626;SDS011;63132;52.268;5.192;2022-09-01T02:03:20;8.63;;;2.83;;
74626;SDS011;63132;52.268;5.192;2022-09-01T02:05:49;5.57;;;2.65;;
74626;SDS011;63132;52.268;5.192;2022-09-01T02:08:16;6.13;;;2.50;;
74626;SDS011;63132;52.268;5.192;2022-09-01T02:10:45;8.65;;;2.42;;
74626;SDS011;63132;52.268;5.192;2022-09-01T02:13:13;6.85;;;2.70;;
74626;SDS011;63132;52.268;5.192;2022-09-01T02:15:46;9.05;;;2.72;;
74626;SDS011;63132;52.268;5.192;2022-09-01T02:18:22;7.03;;;2.90;;
74626;SDS011;63132;52.268;5.192;2022-09-01T02:20:51;6.85;;;2.45;;
74626;SDS011;63132;52.268;5.192;2022-09-01T02:23:18;5.45;;;2.83;;
74626;SDS011;63132;52.268;5.192;2022-09-01T02:25:47;8.38;;;2.50;;
74626;SDS011;63132;52.268;5.192;2022-09-01T02:28:15;7.38;;;2.78;;
74626;SDS011;63132;52.268;5.192;2022-09-01T02:30:42;10.90;;;3.67;;
74626;SDS011;63132;52.268;5.192;2022-09-01T02:33:10;5.93;;;2.60;;
74626;SDS011;63132;52.268;5.192;2022-09-01T02:35:42;7.63;;;3.00;;
74626;SDS011;63132;52.268;5.192;2022-09-01T02:38:08;6.70;;;2.97;;
74626;SDS011;63132;52.268;5.192;2022-09-01T02:40:33;5.97;;;3.00;;
74626;SDS011;63132;52.268;5.192;2022-09-01T02:42:59;7.72;;;2.80;;
74626;SDS011;63132;52.268;5.192;2022-09-01T02:45:28;5.43;;;2.85;;
74626;SDS011;63132;52.268;5.192;2022-09-01T02:47:54;9.38;;;3.10;;
74626;SDS011;63132;52.268;5.192;2022-09-01T02:50:21;6.80;;;3.03;;
74626;SDS011;63132;52.268;5.192;2022-09-01T02:52:49;11.40;;;3.27;;
74626;SDS011;63132;52.268;5.192;2022-09-01T02:55:18;5.75;;;2.80;;
74626;SDS011;63132;52.268;5.192;2022-09-01T02:57:48;5.87;;;2.90;;
74626;SDS011;63132;52.268;5.192;2022-09-01T03:00:14;7.88;;;3.20;;
74626;SDS011;63132;52.268;5.192;2022-09-01T03:02:53;5.27;;;2.90;;
74626;SDS011;63132;52.268;5.192;2022-09-01T03:05:20;5.63;;;2.53;;
74626;SDS011;63132;52.268;5.192;2022-09-01T03:07:51;7.05;;;3.20;;
74626;SDS011;63132;52.268;5.192;2022-09-01T03:10:21;5.80;;;3.10;;
74626;SDS011;63132;52.268;5.192;2022-09-01T03:12:48;6.50;;;2.72;;
74626;SDS011;63132;52.268;5.192;2022-09-01T03:15:14;8.98;;;2.80;;
74626;SDS011;63132;52.268;5.192;2022-09-01T03:17:39;7.33;;;2.67;;
74626;SDS011;63132;52.268;5.192;2022-09-01T03:20:05;6.30;;;2.80;;
74626;SDS011;63132;52.268;5.192;2022-09-01T03:22:31;6.97;;;2.80;;
74626;SDS011;63132;52.268;5.192;2022-09-01T03:24:57;5.30;;;2.65;;
74626;SDS011;63132;52.268;5.192;2022-09-01T03:27:23;6.07;;;2.93;;
74626;SDS011;63132;52.268;5.192;2022-09-01T03:29:49;7.00;;;2.70;;
74626;SDS011;63132;52.268;5.192;2022-09-01T03:32:14;7.40;;;2.80;;
74626;SDS011;63132;52.268;5.192;2022-09-01T03:34:39;6.67;;;2.80;;
74626;SDS011;63132;52.268;5.192;2022-09-01T03:37:05;5.87;;;2.90;;
74626;SDS011;63132;52.268;5.192;2022-09-01T03:39:31;5.90;;;2.67;;
74626;SDS011;63132;52.268;5.192;2022-09-01T03:41:58;7.13;;;2.85;;
74626;SDS011;63132;52.268;5.192;2022-09-01T03:44:24;8.07;;;2.90;;
74626;SDS011;63132;52.268;5.192;2022-09-01T03:46:49;5.95;;;2.70;;
74626;SDS011;63132;52.268;5.192;2022-09-01T03:49:16;5.88;;;2.90;;
74626;SDS011;63132;52.268;5.192;2022-09-01T03:51:49;7.38;;;3.10;;
74626;SDS011;63132;52.268;5.192;2022-09-01T03:54:17;6.03;;;2.70;;
74626;SDS011;63132;52.268;5.192;2022-09-01T03:56:42;6.77;;;2.60;;
74626;SDS011;63132;52.268;5.192;2022-09-01T03:59:09;6.30;;;2.80;;
74626;SDS011;63132;52.268;5.192;2022-09-01T04:01:41;6.38;;;2.97;;
74626;SDS011;63132;52.268;5.192;2022-09-01T04:04:08;7.00;;;3.08;;
74626;SDS011;63132;52.268;5.192;2022-09-01T04:06:38;5.23;;;2.77;;
74626;SDS011;63132;52.268;5.192;2022-09-01T04:09:03;5.93;;;2.80;;
74626;SDS011;63132;52.268;5.192;2022-09-01T04:11:29;5.57;;;2.70;;
74626;SDS011;63132;52.268;5.192;2022-09-01T04:13:55;6.45;;;2.78;;
74626;SDS011;63132;52.268;5.192;2022-09-01T04:16:23;4.93;;;2.53;;
74626;SDS011;63132;52.268;5.192;2022-09-01T04:19:12;4.45;;;2.60;;
74626;SDS011;63132;52.268;5.192;2022-09-01T04:21:50;7.75;;;2.72;;
74626;SDS011;63132;52.268;5.192;2022-09-01T04:24:20;5.85;;;2.60;;
74626;SDS011;63132;52.268;5.192;2022-09-01T04:26:48;7.07;;;3.17;;
74626;SDS011;63132;52.268;5.192;2022-09-01T04:29:18;7.65;;;2.67;;
74626;SDS011;63132;52.268;5.192;2022-09-01T04:31:48;6.43;;;2.70;;
74626;SDS011;63132;52.268;5.192;2022-09-01T04:34:17;5.45;;;2.90;;
74626;SDS011;63132;52.268;5.192;2022-09-01T04:36:43;5.37;;;2.70;;
74626;SDS011;63132;52.268;5.192;2022-09-01T04:39:09;6.85;;;2.85;;
74626;SDS011;63132;52.268;5.192;2022-09-01T04:41:38;5.80;;;2.80;;
74626;SDS011;63132;52.268;5.192;2022-09-01T04:44:06;6.47;;;2.75;;
74626;SDS011;63132;52.268;5.192;2022-09-01T04:46:33;5.80;;;2.42;;
74626;SDS011;63132;52.268;5.192;2022-09-01T04:49:06;6.28;;;2.30;;
74626;SDS011;63132;52.268;5.192;2022-09-01T04:51:39;8.23;;;2.85;;
74626;SDS011;63132;52.268;5.192;2022-09-01T04:54:07;5.10;;;2.50;;
74626;SDS011;63132;52.268;5.192;2022-09-01T04:56:38;8.80;;;2.88;;
74626;SDS011;63132;52.268;5.192;2022-09-01T04:59:08;5.40;;;2.55;;
74626;SDS011;63132;52.268;5.192;2022-09-01T05:01:36;6.10;;;2.40;;
74626;SDS011;63132;52.268;5.192;2022-09-01T05:04:10;5.38;;;2.40;;
74626;SDS011;63132;52.268;5.192;2022-09-01T05:06:41;8.52;;;2.70;;
74626;SDS011;63132;52.268;5.192;2022-09-01T05:09:13;4.20;;;2.27;;
74626;SDS011;63132;52.268;5.192;2022-09-01T05:11:41;6.35;;;2.40;;
74626;SDS011;63132;52.268;5.192;2022-09-01T05:14:09;6.00;;;2.65;;
74626;SDS011;63132;52.268;5.192;2022-09-01T05:16:36;7.97;;;2.50;;
74626;SDS011;63132;52.268;5.192;2022-09-01T05:19:05;7.63;;;2.10;;
74626;SDS011;63132;52.268;5.192;2022-09-01T05:21:31;4.07;;;2.28;;
74626;SDS011;63132;52.268;5.192;2022-09-01T05:23:57;5.73;;;2.63;;
74626;SDS011;63132;52.268;5.192;2022-09-01T05:26:29;6.28;;;2.58;;
74626;SDS011;63132;52.268;5.192;2022-09-01T05:29:00;3.70;;;2.35;;
74626;SDS011;63132;52.268;5.192;2022-09-01T05:31:28;7.03;;;2.60;;
74626;SDS011;63132;52.268;5.192;2022-09-01T05:33:58;5.75;;;2.80;;
74626;SDS011;63132;52.268;5.192;2022-09-01T05:36:25;7.75;;;2.70;;
74626;SDS011;63132;52.268;5.192;2022-09-01T05:38:52;4.50;;;2.40;;
74626;SDS011;63132;52.268;5.192;2022-09-01T05:41:19;4.65;;;2.22;;
74626;SDS011;63132;52.268;5.192;2022-09-01T05:43:48;5.40;;;2.27;;
74626;SDS011;63132;52.268;5.192;2022-09-01T05:46:16;5.38;;;2.60;;
74626;SDS011;63132;52.268;5.192;2022-09-01T05:48:45;6.18;;;2.30;;
74626;SDS011;63132;52.268;5.192;2022-09-01T05:51:13;11.43;;;2.42;;
74626;SDS011;63132;52.268;5.192;2022-09-01T05:53:44;7.20;;;2.60;;
74626;SDS011;63132;52.268;5.192;2022-09-01T05:56:16;6.88;;;2.20;;
74626;SDS011;63132;52.268;5.192;2022-09-01T05:58:43;5.32;;;2.28;;
74626;SDS011;63132;52.268;5.192;2022-09-01T06:01:15;8.35;;;2.70;;
74626;SDS011;63132;52.268;5.192;2022-09-01T06:03:51;7.25;;;2.50;;
74626;SDS011;63132;52.268;5.192;2022-09-01T06:06:25;7.78;;;2.50;;
74626;SDS011;63132;52.268;5.192;2022-09-01T06:08:53;8.75;;;2.75;;
74626;SDS011;63132;52.268;5.192;2022-09-01T06:11:22;7.00;;;2.20;;
74626;SDS011;63132;52.268;5.192;2022-09-01T06:13:48;6.03;;;2.40;;
74626;SDS011;63132;52.268;5.192;2022-09-01T06:16:16;6.38;;;2.35;;
74626;SDS011;63132;52.268;5.192;2022-09-01T06:18:44;7.15;;;2.30;;
74626;SDS011;63132;52.268;5.192;2022-09-01T06:21:10;6.63;;;2.10;;
74626;SDS011;63132;52.268;5.192;2022-09-01T06:23:42;7.13;;;2.28;;
74626;SDS011;63132;52.268;5.192;2022-09-01T06:26:42;8.38;;;2.70;;
74626;SDS011;63132;52.268;5.192;2022-09-01T06:29:04;8.20;;;2.10;;
74626;SDS011;63132;52.268;5.192;2022-09-01T06:31:31;5.95;;;2.22;;
74626;SDS011;63132;52.268;5.192;2022-09-01T06:34:00;5.25;;;2.20;;
74626;SDS011;63132;52.268;5.192;2022-09-01T06:36:27;8.68;;;2.50;;
74626;SDS011;63132;52.268;5.192;2022-09-01T06:38:53;4.93;;;2.10;;
74626;SDS011;63132;52.268;5.192;2022-09-01T06:41:20;7.47;;;2.15;;
74626;SDS011;63132;52.268;5.192;2022-09-01T06:43:48;6.88;;;2.10;;
74626;SDS011;63132;52.268;5.192;2022-09-01T06:46:17;5.97;;;2.20;;
74626;SDS011;63132;52.268;5.192;2022-09-01T06:48:44;6.97;;;2.10;;
74626;SDS011;63132;52.268;5.192;2022-09-01T06:51:16;12.25;;;2.20;;
74626;SDS011;63132;52.268;5.192;2022-09-01T06:53:45;5.93;;;2.00;;
74626;SDS011;63132;52.268;5.192;2022-09-01T06:56:15;6.60;;;2.17;;
74626;SDS011;63132;52.268;5.192;2022-09-01T06:58:43;6.43;;;2.13;;
74626;SDS011;63132;52.268;5.192;2022-09-01T07:01:12;5.78;;;2.20;;
74626;SDS011;63132;52.268;5.192;2022-09-01T07:03:40;7.28;;;2.10;;
74626;SDS011;63132;52.268;5.192;2022-09-01T07:06:09;4.78;;;2.00;;
74626;SDS011;63132;52.268;5.192;2022-09-01T07:08:35;4.20;;;1.70;;
74626;SDS011;63132;52.268;5.192;2022-09-01T07:11:04;4.90;;;2.33;;
74626;SDS011;63132;52.268;5.192;2022-09-01T07:13:40;6.93;;;2.40;;
74626;SDS011;63132;52.268;5.192;2022-09-01T07:16:06;6.95;;;2.45;;
74626;SDS011;63132;52.268;5.192;2022-09-01T07:18:32;5.95;;;2.20;;
74626;SDS011;63132;52.268;5.192;2022-09-01T07:20:58;6.90;;;2.38;;
74626;SDS011;63132;52.268;5.192;2022-09-01T07:23:24;5.78;;;2.10;;
74626;SDS011;63132;52.268;5.192;2022-09-01T07:25:49;6.93;;;2.23;;
74626;SDS011;63132;52.268;5.192;2022-09-01T07:28:18;6.05;;;2.30;;
74626;SDS011;63132;52.268;5.192;2022-09-01T07:30:45;4.30;;;2.00;;
74626;SDS011;63132;52.268;5.192;2022-09-01T07:33:15;6.00;;;2.05;;
74626;SDS011;63132;52.268;5.192;2022-09-01T07:35:46;6.85;;;2.10;;
74626;SDS011;63132;52.268;5.192;2022-09-01T07:38:12;9.10;;;2.10;;
74626;SDS011;63132;52.268;5.192;2022-09-01T07:40:39;4.65;;;1.92;;
74626;SDS011;63132;52.268;5.192;2022-09-01T07:43:26;5.22;;;1.85;;
74626;SDS011;63132;52.268;5.192;2022-09-01T07:45:54;5.05;;;1.70;;
74626;SDS011;63132;52.268;5.192;2022-09-01T07:48:22;5.60;;;1.80;;
74626;SDS011;63132;52.268;5.192;2022-09-01T07:50:49;6.22;;;1.77;;
74626;SDS011;63132;52.268;5.192;2022-09-01T07:53:18;4.70;;;1.70;;
74626;SDS011;63132;52.268;5.192;2022-09-01T07:55:47;6.60;;;1.70;;
74626;SDS011;63132;52.268;5.192;2022-09-01T07:58:17;7.25;;;2.40;;
74626;SDS011;63132;52.268;5.192;2022-09-01T08:00:45;6.88;;;3.17;;
74626;SDS011;63132;52.268;5.192;2022-09-01T08:03:13;6.67;;;2.80;;
74626;SDS011;63132;52.268;5.192;2022-09-01T08:05:38;6.47;;;1.90;;
74626;SDS011;63132;52.268;5.192;2022-09-01T08:08:05;8.35;;;2.88;;
74626;SDS011;63132;52.268;5.192;2022-09-01T08:10:30;6.13;;;2.53;;
74626;SDS011;63132;52.268;5.192;2022-09-01T08:12:56;6.40;;;1.80;;
74626;SDS011;63132;52.268;5.192;2022-09-01T08:15:22;5.07;;;1.92;;
74626;SDS011;63132;52.268;5.192;2022-09-01T08:17:49;5.18;;;1.70;;
74626;SDS011;63132;52.268;5.192;2022-09-01T08:20:14;4.37;;;1.90;;
74626;SDS011;63132;52.268;5.192;2022-09-01T08:22:40;5.68;;;1.80;;
74626;SDS011;63132;52.268;5.192;2022-09-01T08:25:14;4.87;;;1.87;;
74626;SDS011;63132;52.268;5.192;2022-09-01T08:27:40;4.37;;;1.40;;
74626;SDS011;63132;52.268;5.192;2022-09-01T08:30:07;5.23;;;1.60;;
74626;SDS011;63132;52.268;5.192;2022-09-01T08:32:34;5.15;;;1.92;;
74626;SDS011;63132;52.268;5.192;2022-09-01T08:35:01;4.28;;;1.60;;
74626;SDS011;63132;52.268;5.192;2022-09-01T08:37:29;4.37;;;1.60;;
74626;SDS011;63132;52.268;5.192;2022-09-01T08:39:55;7.20;;;1.77;;
74626;SDS011;63132;52.268;5.192;2022-09-01T08:45:21;8.13;;;1.80;;
74626;SDS011;63132;52.268;5.192;2022-09-01T08:47:56;4.13;;;1.50;;
74626;SDS011;63132;52.268;5.192;2022-09-01T08:50:24;5.47;;;1.30;;
74626;SDS011;63132;52.268;5.192;2022-09-01T08:52:51;4.80;;;1.30;;
74626;SDS011;63132;52.268;5.192;2022-09-01T08:55:35;5.10;;;1.60;;
74626;SDS011;63132;52.268;5.192;2022-09-01T08:58:09;8.77;;;1.67;;
74626;SDS011;63132;52.268;5.192;2022-09-01T09:00:43;4.05;;;1.30;;
74626;SDS011;63132;52.268;5.192;2022-09-01T09:03:26;6.10;;;1.50;;
74626;SDS011;63132;52.268;5.192;2022-09-01T09:06:18;2.65;;;1.17;;
74626;SDS011;63132;52.268;5.192;2022-09-01T09:08:54;4.28;;;1.50;;
74626;SDS011;63132;52.268;5.192;2022-09-01T09:14:27;5.15;;;1.23;;
74626;SDS011;63132;52.268;5.192;2022-09-01T09:17:16;5.60;;;1.40;;
74626;SDS011;63132;52.268;5.192;2022-09-01T09:19:47;6.70;;;1.03;;
74626;SDS011;63132;52.268;5.192;2022-09-01T09:22:13;6.73;;;1.37;;
74626;SDS011;63132;52.268;5.192;2022-09-01T09:27:24;4.40;;;1.20;;
74626;SDS011;63132;52.268;5.192;2022-09-01T09:30:07;2.75;;;1.00;;
74626;SDS011;63132;52.268;5.192;2022-09-01T09:43:24;10.40;;;1.43;;
74626;SDS011;63132;52.268;5.192;2022-09-01T09:45:50;3.42;;;1.00;;
74626;SDS011;63132;52.268;5.192;2022-09-01T09:49:05;2.90;;;0.90;;
74626;SDS011;63132;52.268;5.192;2022-09-01T09:51:31;4.22;;;0.80;;
74626;SDS011;63132;52.268;5.192;2022-09-01T09:54:09;5.20;;;0.82;;
74626;SDS011;63132;52.268;5.192;2022-09-01T09:56:37;2.07;;;0.90;;
74626;SDS011;63132;52.268;5.192;2022-09-01T09:59:15;4.28;;;1.17;;
74626;SDS011;63132;52.268;5.192;2022-09-01T10:01:46;12.30;;;1.35;;
74626;SDS011;63132;52.268;5.192;2022-09-01T10:04:18;4.95;;;0.70;;
74626;SDS011;63132;52.268;5.192;2022-09-01T10:06:59;3.00;;;0.90;;
74626;SDS011;63132;52.268;5.192;2022-09-01T10:11:51;2.83;;;0.70;;
74626;SDS011;63132;52.268;5.192;2022-09-01T10:14:22;4.32;;;0.88;;
74626;SDS011;63132;52.268;5.192;2022-09-01T10:16:53;4.97;;;0.70;;
74626;SDS011;63132;52.268;5.192;2022-09-01T10:19:25;3.05;;;1.00;;
74626;SDS011;63132;52.268;5.192;2022-09-01T10:21:52;3.95;;;0.93;;
74626;SDS011;63132;52.268;5.192;2022-09-01T10:24:22;3.42;;;0.90;;
74626;SDS011;63132;52.268;5.192;2022-09-01T10:26:52;4.15;;;1.23;;
74626;SDS011;63132;52.268;5.192;2022-09-01T10:29:22;3.60;;;1.00;;
74626;SDS011;63132;52.268;5.192;2022-09-01T10:31:53;3.47;;;1.03;;
74626;SDS011;63132;52.268;5.192;2022-09-01T10:34:19;6.20;;;1.00;;
74626;SDS011;63132;52.268;5.192;2022-09-01T10:36:47;3.75;;;1.08;;
74626;SDS011;63132;52.268;5.192;2022-09-01T10:39:14;2.83;;;0.73;;
74626;SDS011;63132;52.268;5.192;2022-09-01T10:44:12;3.63;;;0.85;;
74626;SDS011;63132;52.268;5.192;2022-09-01T10:46:47;3.15;;;0.75;;
74626;SDS011;63132;52.268;5.192;2022-09-01T10:49:21;2.88;;;0.90;;
74626;SDS011;63132;52.268;5.192;2022-09-01T10:51:53;3.33;;;1.03;;
74626;SDS011;63132;52.268;5.192;2022-09-01T10:57:27;4.45;;;0.85;;
74626;SDS011;63132;52.268;5.192;2022-09-01T10:59:52;3.50;;;0.98;;
74626;SDS011;63132;52.268;5.192;2022-09-01T11:02:19;4.57;;;1.00;;
74626;SDS011;63132;52.268;5.192;2022-09-01T11:09:43;3.45;;;0.93;;
74626;SDS011;63132;52.268;5.192;2022-09-01T11:14:53;3.33;;;0.95;;
74626;SDS011;63132;52.268;5.192;2022-09-01T11:22:35;5.30;;;1.77;;
74626;SDS011;63132;52.268;5.192;2022-09-01T11:28:00;5.07;;;1.20;;
74626;SDS011;63132;52.268;5.192;2022-09-01T11:32:56;3.20;;;1.00;;
74626;SDS011;63132;52.268;5.192;2022-09-01T11:35:35;2.40;;;0.80;;
74626;SDS011;63132;52.268;5.192;2022-09-01T11:38:01;3.10;;;0.98;;
74626;SDS011;63132;52.268;5.192;2022-09-01T11:40:31;3.25;;;1.20;;
74626;SDS011;63132;52.268;5.192;2022-09-01T11:42:59;3.30;;;0.90;;
74626;SDS011;63132;52.268;5.192;2022-09-01T11:45:44;2.58;;;1.00;;
74626;SDS011;63132;52.268;5.192;2022-09-01T11:48:22;1.80;;;0.90;;
74626;SDS011;63132;52.268;5.192;2022-09-01T11:50:55;2.88;;;1.10;;
74626;SDS011;63132;52.268;5.192;2022-09-01T11:53:23;4.40;;;0.95;;
74626;SDS011;63132;52.268;5.192;2022-09-01T11:55:51;2.85;;;0.90;;
74626;SDS011;63132;52.268;5.192;2022-09-01T11:58:28;4.20;;;0.80;;
74626;SDS011;63132;52.268;5.192;2022-09-01T12:01:10;5.50;;;0.90;;
74626;SDS011;63132;52.268;5.192;2022-09-01T12:03:39;2.05;;;0.60;;
74626;SDS011;63132;52.268;5.192;2022-09-01T12:06:05;4.13;;;0.80;;
74626;SDS011;63132;52.268;5.192;2022-09-01T12:08:38;2.55;;;0.90;;
74626;SDS011;63132;52.268;5.192;2022-09-01T12:11:07;1.40;;;0.60;;
74626;SDS011;63132;52.268;5.192;2022-09-01T12:13:35;2.03;;;0.90;;
74626;SDS011;63132;52.268;5.192;2022-09-01T12:16:04;1.55;;;0.70;;
74626;SDS011;63132;52.268;5.192;2022-09-01T12:18:33;3.83;;;0.90;;
74626;SDS011;63132;52.268;5.192;2022-09-01T12:21:15;9.23;;;1.00;;
74626;SDS011;63132;52.268;5.192;2022-09-01T12:23:44;6.50;;;0.70;;
74626;SDS011;63132;52.268;5.192;2022-09-01T12:26:14;4.82;;;0.98;;
74626;SDS011;63132;52.268;5.192;2022-09-01T12:28:42;4.10;;;0.88;;
74626;SDS011;63132;52.268;5.192;2022-09-01T12:31:16;2.42;;;0.70;;
74626;SDS011;63132;52.268;5.192;2022-09-01T12:33:50;4.63;;;1.00;;
74626;SDS011;63132;52.268;5.192;2022-09-01T12:36:33;4.93;;;0.80;;
74626;SDS011;63132;52.268;5.192;2022-09-01T12:39:20;3.05;;;0.90;;
74626;SDS011;63132;52.268;5.192;2022-09-01T12:44:33;4.32;;;0.88;;
74626;SDS011;63132;52.268;5.192;2022-09-01T12:47:00;3.53;;;0.93;;
74626;SDS011;63132;52.268;5.192;2022-09-01T12:54:44;5.32;;;0.80;;
74626;SDS011;63132;52.268;5.192;2022-09-01T12:57:32;3.40;;;0.85;;
74626;SDS011;63132;52.268;5.192;2022-09-01T13:00:08;3.55;;;1.00;;
74626;SDS011;63132;52.268;5.192;2022-09-01T13:07:53;2.47;;;0.90;;
74626;SDS011;63132;52.268;5.192;2022-09-01T13:10:20;4.50;;;0.80;;
74626;SDS011;63132;52.268;5.192;2022-09-01T13:12:49;1.97;;;0.83;;
74626;SDS011;63132;52.268;5.192;2022-09-01T13:15:15;2.95;;;0.77;;
74626;SDS011;63132;52.268;5.192;2022-09-01T13:17:42;4.10;;;0.80;;
74626;SDS011;63132;52.268;5.192;2022-09-01T13:20:08;2.95;;;0.90;;
74626;SDS011;63132;52.268;5.192;2022-09-01T13:22:36;6.88;;;0.80;;
74626;SDS011;63132;52.268;5.192;2022-09-01T13:25:02;1.42;;;0.70;;
74626;SDS011;63132;52.268;5.192;2022-09-01T13:27:28;1.80;;;0.82;;
74626;SDS011;63132;52.268;5.192;2022-09-01T13:29:53;5.00;;;0.97;;
74626;SDS011;63132;52.268;5.192;2022-09-01T13:32:19;2.40;;;0.73;;
74626;SDS011;63132;52.268;5.192;2022-09-01T13:34:48;3.13;;;1.60;;
74626;SDS011;63132;52.268;5.192;2022-09-01T13:37:14;2.92;;;1.02;;
74626;SDS011;63132;52.268;5.192;2022-09-01T13:39:40;1.57;;;0.73;;
74626;SDS011;63132;52.268;5.192;2022-09-01T13:42:05;3.30;;;0.83;;
74626;SDS011;63132;52.268;5.192;2022-09-01T13:44:30;3.70;;;0.80;;
74626;SDS011;63132;52.268;5.192;2022-09-01T13:46:56;3.00;;;0.85;;
74626;SDS011;63132;52.268;5.192;2022-09-01T13:49:22;3.17;;;0.98;;
74626;SDS011;63132;52.268;5.192;2022-09-01T13:51:51;3.57;;;1.17;;
74626;SDS011;63132;52.268;5.192;2022-09-01T13:54:17;1.85;;;0.73;;
74626;SDS011;63132;52.268;5.192;2022-09-01T13:56:43;3.15;;;0.90;;
74626;SDS011;63132;52.268;5.192;2022-09-01T13:59:09;3.20;;;0.90;;
74626;SDS011;63132;52.268;5.192;2022-09-01T14:01:34;3.87;;;0.97;;
74626;SDS011;63132;52.268;5.192;2022-09-01T14:03:59;1.90;;;0.70;;
74626;SDS011;63132;52.268;5.192;2022-09-01T14:06:27;4.60;;;0.90;;
74626;SDS011;63132;52.268;5.192;2022-09-01T14:08:53;3.90;;;0.85;;
74626;SDS011;63132;52.268;5.192;2022-09-01T14:11:18;2.77;;;0.87;;
74626;SDS011;63132;52.268;5.192;2022-09-01T14:13:44;3.90;;;0.80;;
74626;SDS011;63132;52.268;5.192;2022-09-01T14:16:10;3.25;;;0.88;;
74626;SDS011;63132;52.268;5.192;2022-09-01T14:18:37;4.80;;;1.00;;
74626;SDS011;63132;52.268;5.192;2022-09-01T14:21:03;2.20;;;0.90;;
74626;SDS011;63132;52.268;5.192;2022-09-01T14:23:29;3.60;;;0.90;;
74626;SDS011;63132;52.268;5.192;2022-09-01T14:25:55;3.30;;;0.80;;
74626;SDS011;63132;52.268;5.192;2022-09-01T14:28:21;2.17;;;0.70;;
74626;SDS011;63132;52.268;5.192;2022-09-01T14:30:47;4.05;;;1.02;;
74626;SDS011;63132;52.268;5.192;2022-09-01T14:33:14;3.22;;;0.95;;
74626;SDS011;63132;52.268;5.192;2022-09-01T14:35:41;3.72;;;0.90;;
74626;SDS011;63132;52.268;5.192;2022-09-01T14:38:10;4.60;;;1.00;;
74626;SDS011;63132;52.268;5.192;2022-09-01T14:40:39;3.65;;;0.90;;
74626;SDS011;63132;52.268;5.192;2022-09-01T14:43:06;3.78;;;0.90;;
74626;SDS011;63132;52.268;5.192;2022-09-01T14:45:38;4.30;;;0.80;;
74626;SDS011;63132;52.268;5.192;2022-09-01T14:48:04;6.18;;;0.90;;
74626;SDS011;63132;52.268;5.192;2022-09-01T14:50:30;4.15;;;0.90;;
74626;SDS011;63132;52.268;5.192;2022-09-01T14:52:58;6.45;;;0.90;;
74626;SDS011;63132;52.268;5.192;2022-09-01T14:55:25;2.90;;;1.20;;
74626;SDS011;63132;52.268;5.192;2022-09-01T14:57:52;3.35;;;0.90;;
74626;SDS011;63132;52.268;5.192;2022-09-01T15:00:19;2.17;;;0.90;;
74626;SDS011;63132;52.268;5.192;2022-09-01T15:02:45;4.07;;;1.05;;
74626;SDS011;63132;52.268;5.192;2022-09-01T15:05:11;3.23;;;0.80;;
74626;SDS011;63132;52.268;5.192;2022-09-01T15:07:37;3.20;;;0.80;;
74626;SDS011;63132;52.268;5.192;2022-09-01T15:10:03;2.63;;;0.87;;
74626;SDS011;63132;52.268;5.192;2022-09-01T15:12:30;3.55;;;0.75;;
74626;SDS011;63132;52.268;5.192;2022-09-01T15:14:56;3.33;;;0.80;;
74626;SDS011;63132;52.268;5.192;2022-09-01T15:17:23;6.45;;;1.10;;
74626;SDS011;63132;52.268;5.192;2022-09-01T15:19:48;8.60;;;1.00;;
74626;SDS011;63132;52.268;5.192;2022-09-01T15:22:14;5.20;;;1.00;;
74626;SDS011;63132;52.268;5.192;2022-09-01T15:24:40;3.15;;;0.98;;
74626;SDS011;63132;52.268;5.192;2022-09-01T15:27:06;5.25;;;0.90;;
74626;SDS011;63132;52.268;5.192;2022-09-01T15:29:31;4.75;;;0.90;;
74626;SDS011;63132;52.268;5.192;2022-09-01T15:31:58;2.15;;;1.10;;
74626;SDS011;63132;52.268;5.192;2022-09-01T15:34:25;2.57;;;0.90;;
74626;SDS011;63132;52.268;5.192;2022-09-01T15:36:54;7.10;;;1.00;;
74626;SDS011;63132;52.268;5.192;2022-09-01T15:39:19;4.40;;;0.80;;
74626;SDS011;63132;52.268;5.192;2022-09-01T15:41:45;4.10;;;0.93;;
74626;SDS011;63132;52.268;5.192;2022-09-01T15:44:10;4.03;;;0.90;;
74626;SDS011;63132;52.268;5.192;2022-09-01T15:46:36;4.07;;;0.93;;
74626;SDS011;63132;52.268;5.192;2022-09-01T15:49:06;7.28;;;1.30;;
74626;SDS011;63132;52.268;5.192;2022-09-01T15:51:37;6.05;;;1.10;;
74626;SDS011;63132;52.268;5.192;2022-09-01T15:54:05;4.38;;;1.02;;
74626;SDS011;63132;52.268;5.192;2022-09-01T15:56:33;2.28;;;0.90;;
74626;SDS011;63132;52.268;5.192;2022-09-01T15:58:59;3.13;;;0.90;;
74626;SDS011;63132;52.268;5.192;2022-09-01T16:01:26;3.42;;;1.00;;